Time;durP1;ratioP1;P1;durP2;ratioP2;P2;SDS_P1;SDS_P2;PMS_P1;PMS_P2;Temp;Humidity;BMP_temperature;BMP_pressure;BME280_temperature;BME280_humidity;BME280_pressure;Samples;Min_cycle;Max_cycle;Signal;HPM_P1;HPM_P2
2022/07/13 00:00:23;;;;;;;1.17;1.07;;;25.10;48.90;;;;;;4995154;28;20461;-68
2022/07/13 00:02:52;;;;;;;1.70;1.60;;;25.10;49.10;;;;;;4994374;28;20472;-67
2022/07/13 00:05:24;;;;;;;1.60;1.50;;;25.10;48.90;;;;;;4999422;28;20448;-68
2022/07/13 00:07:52;;;;;;;4.00;2.13;;;25.10;49.00;;;;;;4994197;28;20559;-67
2022/07/13 00:10:20;;;;;;;1.70;1.60;;;25.10;48.80;;;;;;4993675;28;20433;-66
2022/07/13 00:12:48;;;;;;;2.47;1.60;;;25.10;48.60;;;;;;4994217;28;20424;-67
2022/07/13 00:15:16;;;;;;;1.93;1.43;;;25.10;48.50;;;;;;4987042;28;20438;-68
2022/07/13 00:17:44;;;;;;;1.73;1.63;;;25.10;48.70;;;;;;4994378;28;20499;-68
2022/07/13 00:20:14;;;;;;;1.77;1.67;;;25.10;48.60;;;;;;4992712;28;20473;-66
2022/07/13 00:22:42;;;;;;;1.97;1.77;;;25.10;48.50;;;;;;4989639;28;20418;-67
2022/07/13 00:25:10;;;;;;;1.70;1.60;;;25.10;48.60;;;;;;4991638;28;20442;-67
2022/07/13 00:27:38;;;;;;;1.80;1.40;;;25.10;48.60;;;;;;4994406;28;20492;-68
2022/07/13 00:30:07;;;;;;;1.60;1.50;;;25.20;48.50;;;;;;5000093;28;20469;-67
2022/07/13 00:32:36;;;;;;;1.53;1.43;;;25.10;48.60;;;;;;4989046;28;20441;-67
2022/07/13 00:35:04;;;;;;;2.40;1.93;;;25.20;49.10;;;;;;5002033;28;20473;-66
2022/07/13 00:37:34;;;;;;;1.50;1.30;;;25.10;48.40;;;;;;4993621;28;20430;-67
2022/07/13 00:40:03;;;;;;;2.43;2.13;;;25.20;48.60;;;;;;4990589;28;20553;-68
2022/07/13 00:42:31;;;;;;;1.50;1.40;;;25.20;49.60;;;;;;4994579;28;20438;-68
2022/07/13 00:44:59;;;;;;;3.33;1.70;;;25.20;48.40;;;;;;4993788;28;21042;-68
2022/07/13 00:47:32;;;;;;;2.67;1.80;;;25.10;48.10;;;;;;4990447;28;20481;-67
2022/07/13 00:50:01;;;;;;;1.30;1.20;;;25.20;47.90;;;;;;4992768;28;20477;-68
2022/07/13 00:52:30;;;;;;;1.73;1.53;;;25.10;48.10;;;;;;5003568;28;20490;-67
2022/07/13 00:55:00;;;;;;;1.70;1.60;;;25.20;48.00;;;;;;4993419;28;20540;-66
2022/07/13 00:57:28;;;;;;;1.33;1.23;;;25.10;47.90;;;;;;4993155;28;20488;-67
2022/07/13 00:59:57;;;;;;;2.33;1.70;;;25.10;48.10;;;;;;5008049;28;20473;-67
2022/07/13 01:02:25;;;;;;;1.93;1.77;;;25.20;48.00;;;;;;4993108;28;20869;-67
2022/07/13 01:04:53;;;;;;;1.40;1.30;;;25.20;48.40;;;;;;4993127;28;20469;-67
2022/07/13 01:07:21;;;;;;;1.73;1.10;;;25.10;48.80;;;;;;4993318;28;20434;-68
2022/07/13 01:09:49;;;;;;;1.87;1.40;;;25.20;48.90;;;;;;4993154;28;20485;-67
2022/07/13 01:12:19;;;;;;;3.23;1.60;;;25.20;48.90;;;;;;4994040;28;20437;-67
2022/07/13 01:14:48;;;;;;;1.37;1.27;;;25.20;49.10;;;;;;5007506;28;20517;-67
2022/07/13 01:17:16;;;;;;;1.40;1.30;;;25.20;49.30;;;;;;4993713;28;20512;-67
2022/07/13 01:19:45;;;;;;;1.60;1.50;;;25.10;49.20;;;;;;5007882;28;20510;-67
2022/07/13 01:22:17;;;;;;;2.37;1.50;;;25.20;49.20;;;;;;4992355;28;20842;-67
2022/07/13 01:24:47;;;;;;;2.33;1.63;;;25.10;49.40;;;;;;4990013;28;20909;-68
2022/07/13 01:27:17;;;;;;;1.73;1.63;;;25.20;50.10;;;;;;4993482;28;20445;-67
2022/07/13 01:29:46;;;;;;;2.33;2.13;;;25.20;49.40;;;;;;4992733;28;20478;-67
2022/07/13 01:32:14;;;;;;;2.37;1.73;;;25.20;49.10;;;;;;4986540;28;20444;-67
2022/07/13 01:34:42;;;;;;;2.00;1.80;;;25.10;49.00;;;;;;4990703;28;20474;-68
2022/07/13 01:37:11;;;;;;;1.63;1.33;;;25.10;48.70;;;;;;5008574;28;20498;-67
2022/07/13 01:39:39;;;;;;;1.70;1.60;;;25.20;48.70;;;;;;4989820;28;20870;-66
2022/07/13 01:42:09;;;;;;;1.90;1.70;;;25.20;48.80;;;;;;4992771;28;20488;-67
2022/07/13 01:44:37;;;;;;;1.43;1.33;;;25.10;48.70;;;;;;4993017;28;20508;-67
2022/07/13 01:47:08;;;;;;;1.87;1.60;;;25.10;49.00;;;;;;4991795;28;20445;-67
2022/07/13 01:49:37;;;;;;;2.50;1.70;;;25.10;48.70;;;;;;4989744;28;20488;-66
2022/07/13 01:52:06;;;;;;;1.70;1.50;;;25.20;48.90;;;;;;4992662;28;20489;-67
2022/07/13 01:54:34;;;;;;;2.03;1.20;;;25.10;49.00;;;;;;4989508;28;20481;-68
2022/07/13 01:57:03;;;;;;;1.90;1.57;;;25.20;49.40;;;;;;4992100;28;20453;-67
2022/07/13 01:59:32;;;;;;;1.67;1.57;;;25.20;49.30;;;;;;4994691;28;20477;-67
2022/07/13 02:02:00;;;;;;;2.03;1.83;;;25.10;49.00;;;;;;4991127;28;20472;-66
2022/07/13 02:04:28;;;;;;;1.73;1.40;;;25.20;49.20;;;;;;5000462;28;20470;-67
2022/07/13 02:06:57;;;;;;;1.40;1.30;;;25.10;48.90;;;;;;4991040;28;20959;-67
2022/07/13 02:09:26;;;;;;;1.80;1.70;;;25.10;48.80;;;;;;5007735;28;21003;-67
2022/07/13 02:11:54;;;;;;;1.60;1.50;;;25.20;48.60;;;;;;5001624;28;20438;-68
2022/07/13 02:14:22;;;;;;;1.63;1.53;;;25.10;48.00;;;;;;4990320;28;20528;-67
2022/07/13 02:16:52;;;;;;;2.07;1.23;;;25.10;47.80;;;;;;4990028;28;20465;-67
2022/07/13 02:19:21;;;;;;;1.67;1.33;;;25.10;47.90;;;;;;4983219;28;20465;-68
2022/07/13 02:21:49;;;;;;;1.90;1.57;;;25.20;47.90;;;;;;4990940;28;20454;-67
2022/07/13 02:24:18;;;;;;;1.53;1.40;;;25.10;47.90;;;;;;4989120;28;20474;-67
2022/07/13 02:26:47;;;;;;;2.23;1.40;;;25.10;47.70;;;;;;5001698;28;20468;-67
2022/07/13 02:29:15;;;;;;;1.53;1.30;;;25.20;47.90;;;;;;4991328;28;20572;-67
2022/07/13 02:31:43;;;;;;;2.47;1.40;;;25.10;48.30;;;;;;4988241;28;20838;-67
2022/07/13 02:34:13;;;;;;;1.60;1.43;;;25.10;48.60;;;;;;4993582;28;20462;-67
2022/07/13 02:36:41;;;;;;;2.30;1.40;;;25.10;48.30;;;;;;5011665;22;20539;-69
2022/07/13 02:39:09;;;;;;;2.33;1.27;;;25.20;47.90;;;;;;4998322;28;20471;-68
2022/07/13 02:41:37;;;;;;;1.50;1.37;;;25.10;47.70;;;;;;5016813;28;20515;-69
2022/07/13 02:44:06;;;;;;;3.07;1.70;;;25.10;47.40;;;;;;5023595;28;20466;-69
2022/07/13 02:46:34;;;;;;;2.43;1.63;;;25.10;47.30;;;;;;4998531;28;20442;-69
2022/07/13 02:49:02;;;;;;;1.73;1.40;;;25.20;47.50;;;;;;4990546;28;21037;-69
2022/07/13 02:51:32;;;;;;;1.97;1.63;;;25.20;47.90;;;;;;5015570;28;20426;-69
2022/07/13 02:54:00;;;;;;;1.47;1.37;;;25.20;48.40;;;;;;4991087;28;20488;-69
2022/07/13 02:56:28;;;;;;;1.77;1.27;;;25.10;48.60;;;;;;4997194;28;20518;-69
2022/07/13 02:58:56;;;;;;;1.60;1.50;;;25.10;48.70;;;;;;4991905;28;20473;-69
2022/07/13 03:01:24;;;;;;;1.33;1.00;;;25.10;48.90;;;;;;4994911;28;20456;-69
2022/07/13 03:03:54;;;;;;;1.83;1.50;;;25.10;48.90;;;;;;4991822;28;20823;-69
2022/07/13 03:06:22;;;;;;;1.40;1.30;;;25.10;49.10;;;;;;5024493;28;20460;-69
2022/07/13 03:08:52;;;;;;;0.93;0.93;;;25.10;49.10;;;;;;5019395;28;20853;-69
2022/07/13 03:11:20;;;;;;;1.60;1.43;;;25.10;49.20;;;;;;4997927;28;20464;-69
2022/07/13 03:13:49;;;;;;;1.83;1.40;;;25.20;49.30;;;;;;4994944;28;20478;-69
2022/07/13 03:16:17;;;;;;;1.50;1.40;;;25.10;49.20;;;;;;4998847;28;20871;-69
2022/07/13 03:18:46;;;;;;;1.40;1.27;;;25.10;49.30;;;;;;4991869;28;20561;-68
2022/07/13 03:21:14;;;;;;;1.83;1.63;;;25.10;49.40;;;;;;5000020;28;20445;-69
2022/07/13 03:23:42;;;;;;;1.47;1.30;;;25.10;49.40;;;;;;4990694;28;20482;-68
2022/07/13 03:26:12;;;;;;;1.80;1.60;;;25.10;49.40;;;;;;5001890;28;20670;-69
2022/07/13 03:28:40;;;;;;;1.97;1.77;;;25.10;49.40;;;;;;4995731;28;20466;-69
2022/07/13 03:31:09;;;;;;;1.43;1.33;;;25.10;49.50;;;;;;4994613;28;20966;-69
2022/07/13 03:33:37;;;;;;;1.43;1.33;;;25.10;49.40;;;;;;4993248;28;20457;-68
2022/07/13 03:36:06;;;;;;;1.10;1.00;;;25.10;50.60;;;;;;4999296;28;20437;-69
2022/07/13 03:38:35;;;;;;;1.60;1.33;;;25.10;49.50;;;;;;4991172;28;20892;-68
2022/07/13 03:41:03;;;;;;;2.00;1.20;;;25.10;49.40;;;;;;4993234;28;20449;-68
2022/07/13 03:43:33;;;;;;;1.47;1.37;;;25.10;49.50;;;;;;4995478;28;20465;-69
2022/07/13 03:46:01;;;;;;;1.80;1.33;;;25.10;49.60;;;;;;5005046;28;20816;-69
2022/07/13 03:48:30;;;;;;;1.47;1.20;;;25.10;49.40;;;;;;4997896;28;20469;-69
2022/07/13 03:50:58;;;;;;;1.50;1.40;;;25.10;49.30;;;;;;4998667;28;20476;-69
2022/07/13 03:53:26;;;;;;;1.50;1.40;;;25.10;49.50;;;;;;4993223;28;20540;-68
2022/07/13 03:55:54;;;;;;;1.70;1.60;;;25.10;49.20;;;;;;5025893;28;20437;-68
2022/07/13 03:58:23;;;;;;;1.60;1.50;;;25.10;49.40;;;;;;5006528;28;20492;-68
2022/07/13 04:00:55;;;;;;;1.60;1.50;;;25.10;49.50;;;;;;4994025;28;20434;-69
2022/07/13 04:03:23;;;;;;;1.70;1.50;;;25.10;49.40;;;;;;4991688;28;20461;-69
2022/07/13 04:05:53;;;;;;;1.30;1.20;;;25.10;49.40;;;;;;4999696;28;20828;-69
2022/07/13 04:08:21;;;;;;;2.07;1.70;;;25.10;49.40;;;;;;4992416;28;20474;-68
2022/07/13 04:10:49;;;;;;;1.40;1.20;;;25.10;49.50;;;;;;5017194;28;20438;-69
2022/07/13 04:13:18;;;;;;;1.43;1.33;;;25.10;49.50;;;;;;5025983;28;21057;-69
2022/07/13 04:15:46;;;;;;;1.50;1.40;;;25.10;49.50;;;;;;4994135;28;20520;-69
2022/07/13 04:18:16;;;;;;;1.50;1.40;;;25.10;49.60;;;;;;5015481;28;20473;-69
2022/07/13 04:20:44;;;;;;;1.23;1.13;;;25.10;49.60;;;;;;4994979;28;20939;-68
2022/07/13 04:23:12;;;;;;;1.70;1.37;;;25.10;49.70;;;;;;4994100;28;20462;-69
2022/07/13 04:25:41;;;;;;;2.00;1.80;;;25.10;49.70;;;;;;4993889;28;20815;-68
2022/07/13 04:28:10;;;;;;;1.90;1.80;;;25.10;49.70;;;;;;4992836;28;20506;-69
2022/07/13 04:30:38;;;;;;;1.23;1.13;;;25.10;49.70;;;;;;4986959;28;20438;-69
2022/07/13 04:33:11;;;;;;;1.30;1.20;;;25.10;49.70;;;;;;4985324;28;20541;-69
2022/07/13 04:35:40;;;;;;;1.50;1.40;;;25.10;49.80;;;;;;4999879;28;20438;-68
2022/07/13 04:38:09;;;;;;;2.30;1.37;;;25.10;49.80;;;;;;5005153;28;20484;-69
2022/07/13 04:40:37;;;;;;;1.33;1.23;;;25.10;49.80;;;;;;4997265;28;20500;-69
2022/07/13 04:43:05;;;;;;;1.63;1.53;;;25.10;49.80;;;;;;4992745;28;20465;-69
2022/07/13 04:45:33;;;;;;;2.73;1.40;;;25.10;49.80;;;;;;4998915;28;20434;-69
2022/07/13 04:48:01;;;;;;;1.57;0.93;;;25.10;49.90;;;;;;4993726;28;20489;-69
2022/07/13 04:50:32;;;;;;;1.60;1.50;;;25.10;49.80;;;;;;4997649;28;20577;-68
2022/07/13 04:53:03;;;;;;;2.20;1.33;;;25.10;49.90;;;;;;4992602;28;20462;-69
2022/07/13 04:55:33;;;;;;;1.40;1.30;;;25.10;49.80;;;;;;4995079;28;20448;-69
2022/07/13 04:58:01;;;;;;;1.50;1.40;;;25.10;49.90;;;;;;4992414;28;21616;-68
2022/07/13 05:00:29;;;;;;;2.23;1.23;;;25.10;49.80;;;;;;4995984;28;20473;-69
2022/07/13 05:03:11;;;;;;;1.30;1.10;;;25.10;49.80;;;;;;4998872;28;20469;-69
2022/07/13 05:05:39;;;;;;;1.43;1.13;;;25.00;49.80;;;;;;4996933;28;20445;-69
2022/07/13 05:08:08;;;;;;;1.37;1.27;;;25.10;50.00;;;;;;4993656;28;20459;-69
2022/07/13 05:10:36;;;;;;;1.47;1.33;;;25.10;50.00;;;;;;4994200;28;20442;-69
2022/07/13 05:13:05;;;;;;;1.40;1.30;;;25.10;50.00;;;;;;4993459;28;20497;-69
2022/07/13 05:15:52;;;;;;;1.40;1.30;;;25.10;50.00;;;;;;4994683;28;20449;-69
2022/07/13 05:18:22;;;;;;;1.97;1.80;;;25.00;50.00;;;;;;4991658;28;20461;-69
2022/07/13 05:20:50;;;;;;;1.40;1.30;;;25.00;50.00;;;;;;4993247;28;20493;-69
2022/07/13 05:23:20;;;;;;;1.70;1.20;;;25.00;50.00;;;;;;4992510;28;20928;-69
2022/07/13 05:25:50;;;;;;;1.63;1.30;;;25.00;50.10;;;;;;4989383;28;20770;-69
2022/07/13 05:28:19;;;;;;;1.50;1.40;;;25.00;50.20;;;;;;4991535;28;20478;-69
2022/07/13 05:30:48;;;;;;;1.33;1.23;;;25.10;50.30;;;;;;5010495;28;20833;-69
2022/07/13 05:33:19;;;;;;;1.40;1.30;;;25.00;50.30;;;;;;4991118;28;20469;-69
2022/07/13 05:35:49;;;;;;;1.53;1.17;;;25.00;50.60;;;;;;4992155;28;20426;-71
2022/07/13 05:38:17;;;;;;;1.47;1.37;;;25.00;50.50;;;;;;5007815;28;20988;-69
2022/07/13 05:40:47;;;;;;;1.63;1.27;;;25.00;50.50;;;;;;4992143;28;20927;-68
2022/07/13 05:43:15;;;;;;;2.67;1.40;;;25.00;50.40;;;;;;4993032;28;20466;-69
2022/07/13 05:45:44;;;;;;;1.67;1.40;;;25.00;50.50;;;;;;4992766;28;20453;-69
2022/07/13 05:48:12;;;;;;;1.20;1.10;;;25.00;50.40;;;;;;4990292;28;20478;-69
2022/07/13 05:50:40;;;;;;;1.70;1.40;;;25.00;50.40;;;;;;4992337;28;20947;-69
2022/07/13 05:53:08;;;;;;;1.27;1.17;;;25.00;50.40;;;;;;4991634;28;20512;-69
2022/07/13 05:55:37;;;;;;;2.00;1.30;;;25.00;50.40;;;;;;4993451;28;20810;-69
2022/07/13 05:58:06;;;;;;;1.53;1.30;;;25.00;50.40;;;;;;4992741;28;20465;-69
2022/07/13 06:00:34;;;;;;;1.27;1.17;;;25.00;50.40;;;;;;4993084;28;20446;-69
2022/07/13 06:03:02;;;;;;;1.00;1.00;;;25.00;50.40;;;;;;4992068;28;20461;-69
2022/07/13 06:05:31;;;;;;;1.57;1.47;;;25.00;50.50;;;;;;4986448;28;20445;-69
2022/07/13 06:08:00;;;;;;;1.30;1.20;;;25.00;50.50;;;;;;4992484;28;20469;-69
2022/07/13 06:10:28;;;;;;;1.73;1.10;;;25.00;50.40;;;;;;4991612;28;20985;-69
2022/07/13 06:12:56;;;;;;;1.13;1.03;;;25.00;50.50;;;;;;4992410;28;20446;-69
2022/07/13 06:15:26;;;;;;;1.37;1.27;;;25.00;50.50;;;;;;4992740;28;21022;-69
2022/07/13 06:17:54;;;;;;;1.33;1.23;;;25.00;50.50;;;;;;4985083;28;20454;-69
2022/07/13 06:20:22;;;;;;;1.60;1.27;;;25.00;50.50;;;;;;4992621;28;20437;-69
2022/07/13 06:25:32;;;;;;;1.30;1.20;;;25.00;50.50;;;;;;4985427;28;20446;-69
2022/07/13 06:28:00;;;;;;;1.20;1.10;;;25.00;50.50;;;;;;4999829;28;20532;-69
2022/07/13 06:30:29;;;;;;;1.50;1.40;;;25.00;50.50;;;;;;4992663;28;20442;-68
2022/07/13 06:32:57;;;;;;;1.40;1.30;;;25.00;50.50;;;;;;4990447;28;20481;-69
2022/07/13 06:35:26;;;;;;;1.60;1.50;;;25.00;50.50;;;;;;4991931;28;20699;-68
2022/07/13 06:37:54;;;;;;;2.30;1.70;;;25.00;50.50;;;;;;4991852;28;20962;-69
2022/07/13 06:40:23;;;;;;;1.30;1.20;;;25.00;50.50;;;;;;4992683;28;20464;-68
2022/07/13 06:42:51;;;;;;;1.50;1.40;;;25.00;50.50;;;;;;4991855;28;20500;-69
2022/07/13 06:45:22;;;;;;;1.50;1.40;;;25.00;50.60;;;;;;4992401;28;20907;-68
2022/07/13 06:47:52;;;;;;;1.60;1.20;;;25.00;50.60;;;;;;4989937;28;20513;-69
2022/07/13 06:50:20;;;;;;;1.70;1.60;;;25.00;50.80;;;;;;4992063;28;20442;-69
2022/07/13 06:52:48;;;;;;;1.37;1.17;;;25.00;51.00;;;;;;4991800;28;20442;-69
2022/07/13 06:55:16;;;;;;;5.17;1.80;;;25.00;51.00;;;;;;4987014;28;20485;-69
2022/07/13 06:57:44;;;;;;;2.43;1.77;;;25.00;51.00;;;;;;4996092;28;20861;-69
2022/07/13 07:00:14;;;;;;;1.50;1.37;;;25.00;50.80;;;;;;4995882;28;20453;-69
2022/07/13 07:02:42;;;;;;;2.43;2.10;;;25.00;50.50;;;;;;4996361;28;20862;-69
2022/07/13 07:05:11;;;;;;;5.50;1.97;;;25.00;50.20;;;;;;4987169;28;20465;-69
2022/07/13 07:07:40;;;;;;;3.93;2.10;;;25.00;50.00;;;;;;4998962;28;20472;-69
2022/07/13 07:10:10;;;;;;;1.90;1.77;;;25.00;50.80;;;;;;4988147;28;20470;-69
2022/07/13 07:12:39;;;;;;;1.80;1.70;;;25.00;49.30;;;;;;4992495;28;20430;-69
2022/07/13 07:15:08;;;;;;;2.30;1.83;;;25.00;49.10;;;;;;4991443;28;20544;-69
2022/07/13 07:17:44;;;;;;;2.37;2.17;;;25.00;48.90;;;;;;4995869;28;20489;-69
2022/07/13 07:20:14;;;;;;;1.93;1.83;;;25.00;48.90;;;;;;5003241;28;20881;-69
2022/07/13 07:22:44;;;;;;;1.80;1.70;;;25.00;48.30;;;;;;4993237;28;20437;-69
2022/07/13 07:25:12;;;;;;;2.27;1.70;;;25.00;48.00;;;;;;4992043;28;20516;-69
2022/07/13 07:27:41;;;;;;;1.73;1.63;;;25.00;48.00;;;;;;4992748;28;20473;-69
2022/07/13 07:30:10;;;;;;;2.60;1.97;;;25.00;47.80;;;;;;4991698;28;20454;-69
2022/07/13 07:32:39;;;;;;;2.17;1.97;;;25.00;47.80;;;;;;4989191;28;20446;-69
2022/07/13 07:35:08;;;;;;;2.30;2.10;;;25.10;47.90;;;;;;4991897;28;20533;-69
2022/07/13 07:37:39;;;;;;;1.87;1.77;;;25.10;48.10;;;;;;4991732;28;20450;-69
2022/07/13 07:40:10;;;;;;;2.30;1.77;;;25.00;48.90;;;;;;4991009;28;20921;-69
2022/07/13 07:42:38;;;;;;;2.03;1.70;;;25.10;47.60;;;;;;4992009;28;20430;-69
2022/07/13 07:45:08;;;;;;;2.17;1.97;;;25.00;47.20;;;;;;4991604;28;20474;-69
2022/07/13 07:47:36;;;;;;;2.20;2.00;;;25.10;47.30;;;;;;4987464;28;21055;-69
2022/07/13 07:50:06;;;;;;;2.13;1.73;;;25.10;47.10;;;;;;4993630;28;20468;-69
2022/07/13 07:52:34;;;;;;;2.33;2.13;;;25.00;47.20;;;;;;4992137;28;20848;-68
2022/07/13 07:55:24;;;;;;;3.77;1.90;;;25.10;47.10;;;;;;4985564;28;20509;-69
2022/07/13 07:57:52;;;;;;;2.43;2.00;;;25.00;47.10;;;;;;4998210;28;20506;-69
2022/07/13 08:00:20;;;;;;;2.33;2.13;;;25.00;47.00;;;;;;4992008;28;20437;-69
2022/07/13 08:02:49;;;;;;;1.97;1.70;;;25.00;47.20;;;;;;4984496;28;20854;-69
2022/07/13 08:05:18;;;;;;;1.90;1.80;;;25.00;47.40;;;;;;4995081;28;21030;-69
2022/07/13 08:07:46;;;;;;;2.07;1.97;;;25.00;47.50;;;;;;4995321;28;20801;-69
2022/07/13 08:10:15;;;;;;;2.53;1.77;;;25.00;47.70;;;;;;4993804;28;20462;-69
2022/07/13 08:13:04;;;;;;;2.07;1.97;;;25.00;47.40;;;;;;5000760;28;21103;-69
2022/07/13 08:15:32;;;;;;;1.83;1.57;;;25.00;47.60;;;;;;4997668;28;20456;-69
2022/07/13 08:18:00;;;;;;;1.80;1.67;;;25.00;47.60;;;;;;4993408;28;20993;-68
2022/07/13 08:20:29;;;;;;;1.83;1.73;;;25.00;47.60;;;;;;4996939;28;20947;-68
2022/07/13 08:22:57;;;;;;;1.70;1.60;;;25.00;47.80;;;;;;4995074;28;20438;-69
2022/07/13 08:25:26;;;;;;;1.77;1.67;;;25.00;47.70;;;;;;4993874;28;20473;-68
2022/07/13 08:27:54;;;;;;;1.90;1.80;;;25.00;47.60;;;;;;4994217;28;20488;-68
2022/07/13 08:30:23;;;;;;;1.73;1.47;;;25.00;47.70;;;;;;4994898;28;20496;-68
2022/07/13 08:32:51;;;;;;;1.70;1.60;;;25.00;47.50;;;;;;4994650;28;20444;-69
2022/07/13 08:40:54;;;;;;;1.97;1.87;;;25.00;47.50;;;;;;4989027;28;20492;-68
2022/07/13 08:43:26;;;;;;;4.00;1.53;;;25.00;47.50;;;;;;4993566;28;20461;-69
2022/07/13 08:45:56;;;;;;;3.10;1.83;;;25.00;47.40;;;;;;4994866;28;20481;-68
2022/07/13 08:48:29;;;;;;;2.10;1.97;;;25.00;47.50;;;;;;4986508;28;20462;-68
2022/07/13 08:50:57;;;;;;;1.63;1.53;;;25.00;46.80;;;;;;4993544;28;20445;-68
2022/07/13 08:53:25;;;;;;;2.17;1.97;;;25.00;47.20;;;;;;4992939;28;20478;-69
2022/07/13 08:55:56;;;;;;;2.57;2.37;;;25.00;47.30;;;;;;4990397;28;20449;-68
2022/07/13 08:58:25;;;;;;;2.53;1.50;;;25.00;47.20;;;;;;4999210;28;20864;-68
2022/07/13 09:00:55;;;;;;;1.83;1.73;;;25.00;47.30;;;;;;4994239;28;20461;-68
2022/07/13 09:03:23;;;;;;;2.30;1.77;;;25.00;47.40;;;;;;4994962;28;20473;-68
2022/07/13 09:05:51;;;;;;;1.93;1.83;;;25.00;47.50;;;;;;4994127;28;20454;-68
2022/07/13 09:08:20;;;;;;;1.93;1.83;;;25.00;47.50;;;;;;4992354;28;20474;-68
2022/07/13 09:10:53;;;;;;;2.03;1.87;;;25.00;47.50;;;;;;4994210;28;20438;-69
2022/07/13 09:13:36;;;;;;;1.80;1.60;;;25.00;47.60;;;;;;4991892;28;20462;-69
2022/07/13 09:16:19;;;;;;;2.20;2.00;;;25.00;47.50;;;;;;4994614;28;20952;-71
2022/07/13 09:18:50;;;;;;;2.10;1.57;;;25.00;47.20;;;;;;4999352;28;20555;-70
2022/07/13 09:21:19;;;;;;;3.00;1.50;;;25.00;47.20;;;;;;4995169;28;21035;-71
2022/07/13 09:23:49;;;;;;;1.83;1.53;;;25.10;47.20;;;;;;4990733;28;20478;-71
2022/07/13 09:26:18;;;;;;;2.40;2.20;;;25.10;47.30;;;;;;4992878;28;20809;-71
2022/07/13 09:28:48;;;;;;;1.80;1.70;;;25.00;47.20;;;;;;4993290;28;20473;-70
2022/07/13 09:31:19;;;;;;;2.03;1.83;;;25.00;47.20;;;;;;4993436;28;20449;-71
2022/07/13 09:33:48;;;;;;;2.63;2.00;;;25.10;47.40;;;;;;4990043;28;20970;-71
2022/07/13 09:36:18;;;;;;;2.17;1.97;;;25.10;47.40;;;;;;4992227;28;20555;-71
2022/07/13 09:38:48;;;;;;;2.37;1.77;;;25.10;47.40;;;;;;4990518;28;20479;-71
2022/07/13 09:41:18;;;;;;;2.00;1.80;;;25.10;47.40;;;;;;4992541;28;20442;-71
2022/07/13 09:46:56;;;;;;;1.73;1.37;;;25.00;47.50;;;;;;4995232;28;20881;-71
2022/07/13 09:49:37;;;;;;;1.73;1.63;;;25.00;47.60;;;;;;4997559;28;20478;-71
2022/07/13 09:52:07;;;;;;;2.30;1.70;;;25.10;47.60;;;;;;4993681;28;20530;-71
2022/07/13 09:54:36;;;;;;;2.87;2.00;;;25.10;47.60;;;;;;4986887;28;20474;-71
2022/07/13 09:57:08;;;;;;;2.63;1.70;;;25.10;47.70;;;;;;4990409;28;20833;-71
2022/07/13 09:59:38;;;;;;;2.83;1.73;;;25.10;47.40;;;;;;4990622;28;20492;-71
2022/07/13 10:02:08;;;;;;;2.20;2.00;;;25.10;47.60;;;;;;4994784;28;20500;-71
2022/07/13 10:04:40;;;;;;;3.53;2.00;;;25.10;47.60;;;;;;4996996;28;20519;-71
2022/07/13 10:07:18;;;;;;;2.10;1.90;;;25.10;47.80;;;;;;4993839;28;20557;-71
2022/07/13 10:09:47;;;;;;;1.57;1.47;;;25.10;47.80;;;;;;4991218;28;20561;-71
2022/07/13 10:12:15;;;;;;;1.80;1.70;;;25.10;47.80;;;;;;4992944;28;20508;-71
2022/07/13 10:14:44;;;;;;;2.10;1.90;;;25.00;47.80;;;;;;4996972;28;20528;-71
2022/07/13 10:17:22;;;;;;;1.87;1.77;;;25.10;47.80;;;;;;4990666;28;20437;-71
2022/07/13 10:20:00;;;;;;;1.70;1.60;;;25.10;47.80;;;;;;4993157;28;20469;-70
2022/07/13 10:22:32;;;;;;;2.30;2.10;;;25.10;49.00;;;;;;4985537;28;20429;-71
2022/07/13 10:25:01;;;;;;;3.70;2.10;;;25.10;47.90;;;;;;4986050;28;20485;-71
2022/07/13 10:27:31;;;;;;;2.13;1.80;;;25.10;49.10;;;;;;4992729;28;20508;-71
2022/07/13 10:30:03;;;;;;;1.90;1.70;;;25.10;47.90;;;;;;4992243;28;20473;-71
2022/07/13 10:32:34;;;;;;;1.97;1.87;;;25.10;47.90;;;;;;4993818;28;20446;-65
2022/07/13 10:35:05;;;;;;;3.20;2.00;;;25.10;48.00;;;;;;5024309;23;20488;-72
2022/07/13 10:38:10;;;;;;;2.97;2.00;;;25.10;47.70;;;;;;5024332;28;20727;-72
2022/07/13 10:40:39;;;;;;;3.20;2.00;;;25.10;47.70;;;;;;5006963;28;20520;-72
2022/07/13 10:43:18;;;;;;;5.60;2.30;;;25.10;47.60;;;;;;5004312;28;20461;-72
2022/07/13 10:45:51;;;;;;;2.73;2.03;;;25.10;47.60;;;;;;5007115;28;20510;-72
2022/07/13 10:48:43;;;;;;;3.20;2.00;;;25.10;47.70;;;;;;5000813;28;20469;-72
2022/07/13 10:51:22;;;;;;;2.10;1.90;;;25.10;47.70;;;;;;4993161;28;20452;-72
2022/07/13 10:54:08;;;;;;;2.27;2.07;;;25.10;47.70;;;;;;5005733;28;20507;-72
2022/07/13 10:56:37;;;;;;;2.20;2.00;;;25.10;47.70;;;;;;5000783;28;20434;-71
2022/07/13 10:59:06;;;;;;;2.23;2.03;;;25.10;47.60;;;;;;5010666;28;21374;-72
2022/07/13 11:01:42;;;;;;;2.80;2.60;;;25.10;47.60;;;;;;5009730;28;20449;-72
2022/07/13 11:04:15;;;;;;;2.27;1.83;;;25.10;47.60;;;;;;5000349;28;20831;-72
2022/07/13 11:07:04;;;;;;;1.90;1.70;;;25.10;47.60;;;;;;5003384;28;20474;-71
2022/07/13 11:09:32;;;;;;;2.00;1.80;;;25.10;47.70;;;;;;5004467;28;20485;-72
2022/07/13 11:12:00;;;;;;;2.50;2.30;;;25.10;47.50;;;;;;5009577;28;20436;-72
2022/07/13 11:14:48;;;;;;;3.33;2.50;;;25.10;47.30;;;;;;5002454;28;20468;-73
2022/07/13 11:17:20;;;;;;;4.93;2.77;;;25.20;47.00;;;;;;5006511;28;20815;-72
2022/07/13 11:20:09;;;;;;;6.05;2.90;;;25.20;46.90;;;;;;5007724;28;20534;-72
2022/07/13 11:25:48;;;;;;;3.53;2.27;;;25.30;46.80;;;;;;5004298;28;20514;-72
2022/07/13 11:28:32;;;;;;;4.20;2.70;;;25.30;46.80;;;;;;5003120;28;20484;-71
2022/07/13 11:31:04;;;;;;;3.60;2.07;;;25.30;46.60;;;;;;5000673;28;20491;-72
2022/07/13 11:33:32;;;;;;;2.80;2.57;;;25.30;46.80;;;;;;5005972;28;20471;-72
2022/07/13 11:36:02;;;;;;;3.70;2.10;;;25.30;46.90;;;;;;5013307;28;20445;-72
2022/07/13 11:38:36;;;;;;;2.50;2.10;;;25.30;47.00;;;;;;5005849;28;20461;-72
2022/07/13 11:41:05;;;;;;;3.67;2.40;;;25.30;47.00;;;;;;5014555;28;20934;-72
2022/07/13 11:43:33;;;;;;;2.37;2.17;;;25.20;47.00;;;;;;5005156;28;20531;-72
2022/07/13 11:46:24;;;;;;;2.50;1.87;;;25.20;47.10;;;;;;5014562;28;20810;-72
2022/07/13 11:48:59;;;;;;;3.73;2.57;;;25.20;47.20;;;;;;4998535;28;21007;-72
2022/07/13 11:51:29;;;;;;;2.30;2.10;;;25.20;47.30;;;;;;5009474;28;20869;-72
2022/07/13 11:54:07;;;;;;;4.97;2.90;;;25.20;47.40;;;;;;5014213;28;20851;-72
2022/07/13 11:56:35;;;;;;;3.90;2.20;;;25.20;47.40;;;;;;5014724;28;20807;-72
2022/07/13 11:59:03;;;;;;;2.40;2.10;;;25.20;47.50;;;;;;5011813;28;20477;-72
2022/07/13 12:01:32;;;;;;;2.37;2.13;;;25.20;47.50;;;;;;5013118;28;20433;-72
2022/07/13 12:04:00;;;;;;;1.70;1.50;;;25.20;47.60;;;;;;5006315;28;20991;-71
2022/07/13 12:06:30;;;;;;;3.23;2.93;;;25.20;47.50;;;;;;5006699;28;20496;-72
2022/07/13 12:08:59;;;;;;;2.30;1.97;;;25.20;47.60;;;;;;5007765;28;20479;-72
2022/07/13 12:11:27;;;;;;;2.60;2.40;;;25.20;47.60;;;;;;4998864;28;20839;-71
2022/07/13 12:13:55;;;;;;;4.10;2.53;;;25.20;47.70;;;;;;5004090;28;20476;-72
2022/07/13 12:16:24;;;;;;;2.33;1.97;;;25.20;47.50;;;;;;5010064;28;20432;-71
2022/07/13 12:19:03;;;;;;;2.33;2.13;;;25.20;47.70;;;;;;5006286;28;20560;-72
2022/07/13 12:21:33;;;;;;;2.53;2.33;;;25.20;47.70;;;;;;5007602;28;20623;-72
2022/07/13 12:24:02;;;;;;;1.90;1.80;;;25.20;47.80;;;;;;5010826;28;20531;-72
2022/07/13 12:26:31;;;;;;;2.07;1.87;;;25.20;47.80;;;;;;5013215;28;20433;-72
2022/07/13 12:28:59;;;;;;;2.53;2.33;;;25.20;47.90;;;;;;5005822;28;20535;-72
2022/07/13 12:31:27;;;;;;;2.37;2.17;;;25.30;47.80;;;;;;5014107;28;20437;-72
2022/07/13 12:33:55;;;;;;;2.40;2.00;;;25.30;47.90;;;;;;5013426;28;20465;-71
2022/07/13 12:36:25;;;;;;;2.47;2.13;;;25.30;47.90;;;;;;5012514;28;20488;-71
2022/07/13 12:39:00;;;;;;;2.57;1.90;;;25.20;47.90;;;;;;5013119;28;20492;-72
2022/07/13 12:41:30;;;;;;;2.93;2.53;;;25.30;48.00;;;;;;5003089;28;20454;-72
2022/07/13 12:44:00;;;;;;;2.97;2.20;;;25.30;48.00;;;;;;5012883;28;20472;-72
2022/07/13 12:46:47;;;;;;;2.00;1.90;;;25.30;47.90;;;;;;5012788;28;20441;-72
2022/07/13 12:49:16;;;;;;;2.83;2.03;;;25.30;48.00;;;;;;5009653;28;20481;-72
2022/07/13 12:51:49;;;;;;;2.10;1.90;;;25.30;48.00;;;;;;5008231;28;20817;-72
2022/07/13 12:54:38;;;;;;;2.47;2.07;;;25.30;48.10;;;;;;5011393;28;20893;-72
2022/07/13 12:57:10;;;;;;;2.67;2.20;;;25.30;48.00;;;;;;5012707;28;20487;-73
2022/07/13 12:59:39;;;;;;;2.60;2.40;;;25.30;48.00;;;;;;5012910;28;20879;-72
2022/07/13 13:02:08;;;;;;;2.17;1.90;;;25.30;48.10;;;;;;5011944;28;20468;-72
2022/07/13 13:04:36;;;;;;;2.37;2.03;;;25.30;48.00;;;;;;5006031;28;20481;-72
2022/07/13 13:07:04;;;;;;;1.87;1.77;;;25.30;48.10;;;;;;5009688;28;20837;-72
2022/07/13 13:09:33;;;;;;;2.13;2.00;;;25.30;48.10;;;;;;5009441;28;21057;-72
2022/07/13 13:12:01;;;;;;;2.53;2.33;;;25.30;48.10;;;;;;5012937;28;20429;-72
2022/07/13 13:14:29;;;;;;;2.30;2.10;;;25.40;48.20;;;;;;5012611;28;20974;-71
2022/07/13 13:16:57;;;;;;;1.87;1.77;;;25.40;48.20;;;;;;5013118;28;20453;-72